sensor_id;sensor_type;location;lat;lon;timestamp;temperature;humidity
7117;DHT22;3600;48.568;7.870;2023-07-09T00:00:16;24.60;98.20
7117;DHT22;3600;48.568;7.870;2023-07-09T00:03:03;24.60;98.50
7117;DHT22;3600;48.568;7.870;2023-07-09T00:06:25;24.40;98.60
7117;DHT22;3600;48.568;7.870;2023-07-09T00:09:23;24.50;98.90
7117;DHT22;3600;48.568;7.870;2023-07-09T00:12:19;24.60;98.90
7117;DHT22;3600;48.568;7.870;2023-07-09T00:18:14;24.30;99.40
7117;DHT22;3600;48.568;7.870;2023-07-09T00:21:17;24.40;99.00
7117;DHT22;3600;48.568;7.870;2023-07-09T00:24:32;24.40;98.80
7117;DHT22;3600;48.568;7.870;2023-07-09T00:27:40;24.30;98.50
7117;DHT22;3600;48.568;7.870;2023-07-09T00:30:31;24.20;98.20
7117;DHT22;3600;48.568;7.870;2023-07-09T00:33:18;24.20;98.10
7117;DHT22;3600;48.568;7.870;2023-07-09T00:36:35;24.20;98.10
7117;DHT22;3600;48.568;7.870;2023-07-09T00:39:27;24.20;98.00
7117;DHT22;3600;48.568;7.870;2023-07-09T00:42:05;24.20;97.80
7117;DHT22;3600;48.568;7.870;2023-07-09T00:44:58;24.10;97.90
7117;DHT22;3600;48.568;7.870;2023-07-09T00:47:46;24.20;98.00
7117;DHT22;3600;48.568;7.870;2023-07-09T00:50:49;24.10;98.10
7117;DHT22;3600;48.568;7.870;2023-07-09T00:53:34;24.10;98.40
7117;DHT22;3600;48.568;7.870;2023-07-09T00:56:57;24.10;98.30
7117;DHT22;3600;48.568;7.870;2023-07-09T00:59:31;23.90;98.60
7117;DHT22;3600;48.568;7.870;2023-07-09T01:02:54;23.90;98.20
7117;DHT22;3600;48.568;7.870;2023-07-09T01:05:54;23.70;98.80
7117;DHT22;3600;48.568;7.870;2023-07-09T01:08:21;23.90;98.40
7117;DHT22;3600;48.568;7.870;2023-07-09T01:10:48;23.80;98.30
7117;DHT22;3600;48.568;7.870;2023-07-09T01:13:16;23.80;98.30
7117;DHT22;3600;48.568;7.870;2023-07-09T01:15:46;23.80;98.40
7117;DHT22;3600;48.568;7.870;2023-07-09T01:18:13;23.80;98.40
7117;DHT22;3600;48.568;7.870;2023-07-09T01:20:41;23.80;98.30
7117;DHT22;3600;48.568;7.870;2023-07-09T01:23:09;23.90;98.40
7117;DHT22;3600;48.568;7.870;2023-07-09T01:25:41;23.80;98.40
7117;DHT22;3600;48.568;7.870;2023-07-09T01:28:09;23.70;98.60
7117;DHT22;3600;48.568;7.870;2023-07-09T01:30:38;23.70;98.80
7117;DHT22;3600;48.568;7.870;2023-07-09T01:33:05;23.60;98.50
7117;DHT22;3600;48.568;7.870;2023-07-09T01:35:38;23.50;98.60
7117;DHT22;3600;48.568;7.870;2023-07-09T01:38:08;23.40;99.20
7117;DHT22;3600;48.568;7.870;2023-07-09T01:40:36;23.00;99.90
7117;DHT22;3600;48.568;7.870;2023-07-09T01:43:05;22.70;99.90
7117;DHT22;3600;48.568;7.870;2023-07-09T01:45:36;22.30;99.90
7117;DHT22;3600;48.568;7.870;2023-07-09T01:48:05;22.20;99.90
7117;DHT22;3600;48.568;7.870;2023-07-09T01:50:31;22.00;99.90
7117;DHT22;3600;48.568;7.870;2023-07-09T01:52:58;21.80;99.90
7117;DHT22;3600;48.568;7.870;2023-07-09T01:55:25;21.80;99.90
7117;DHT22;3600;48.568;7.870;2023-07-09T01:57:54;21.70;99.90
7117;DHT22;3600;48.568;7.870;2023-07-09T02:00:21;21.70;99.90
7117;DHT22;3600;48.568;7.870;2023-07-09T02:02:48;21.60;99.90
7117;DHT22;3600;48.568;7.870;2023-07-09T02:05:19;21.50;99.90
7117;DHT22;3600;48.568;7.870;2023-07-09T02:07:46;21.20;99.90
7117;DHT22;3600;48.568;7.870;2023-07-09T02:10:15;20.90;99.90
7117;DHT22;3600;48.568;7.870;2023-07-09T02:12:43;21.00;99.90
7117;DHT22;3600;48.568;7.870;2023-07-09T02:15:10;21.20;99.90
7117;DHT22;3600;48.568;7.870;2023-07-09T02:17:37;21.20;99.90
7117;DHT22;3600;48.568;7.870;2023-07-09T02:20:05;21.20;99.90
7117;DHT22;3600;48.568;7.870;2023-07-09T02:22:34;21.20;99.90
7117;DHT22;3600;48.568;7.870;2023-07-09T02:25:02;21.50;99.90
7117;DHT22;3600;48.568;7.870;2023-07-09T02:27:29;21.90;99.90
7117;DHT22;3600;48.568;7.870;2023-07-09T02:29:55;22.10;99.90
7117;DHT22;3600;48.568;7.870;2023-07-09T02:32:26;22.20;99.90
7117;DHT22;3600;48.568;7.870;2023-07-09T02:34:54;22.20;99.90
7117;DHT22;3600;48.568;7.870;2023-07-09T02:37:23;22.20;99.90
7117;DHT22;3600;48.568;7.870;2023-07-09T02:39:51;22.30;99.90
7117;DHT22;3600;48.568;7.870;2023-07-09T02:42:20;22.40;99.90
7117;DHT22;3600;48.568;7.870;2023-07-09T02:44:47;22.40;99.90
7117;DHT22;3600;48.568;7.870;2023-07-09T02:47:14;22.40;99.90
7117;DHT22;3600;48.568;7.870;2023-07-09T02:49:41;22.40;99.90
7117;DHT22;3600;48.568;7.870;2023-07-09T02:52:08;22.40;99.90
7117;DHT22;3600;48.568;7.870;2023-07-09T02:54:36;22.50;99.90
7117;DHT22;3600;48.568;7.870;2023-07-09T02:57:03;22.50;99.90
7117;DHT22;3600;48.568;7.870;2023-07-09T02:59:30;22.40;99.90
7117;DHT22;3600;48.568;7.870;2023-07-09T03:01:59;22.50;99.90
7117;DHT22;3600;48.568;7.870;2023-07-09T03:04:26;22.40;99.90
7117;DHT22;3600;48.568;7.870;2023-07-09T03:06:55;22.40;99.90
7117;DHT22;3600;48.568;7.870;2023-07-09T03:09:22;22.40;99.90
7117;DHT22;3600;48.568;7.870;2023-07-09T03:11:49;22.50;99.90
7117;DHT22;3600;48.568;7.870;2023-07-09T03:14:16;22.50;99.90
7117;DHT22;3600;48.568;7.870;2023-07-09T03:16:43;22.40;99.90
7117;DHT22;3600;48.568;7.870;2023-07-09T03:19:11;22.30;99.90
7117;DHT22;3600;48.568;7.870;2023-07-09T03:21:38;22.30;99.90
7117;DHT22;3600;48.568;7.870;2023-07-09T03:24:05;22.20;99.90
7117;DHT22;3600;48.568;7.870;2023-07-09T03:26:32;22.20;99.90
7117;DHT22;3600;48.568;7.870;2023-07-09T03:28:59;22.20;99.90
7117;DHT22;3600;48.568;7.870;2023-07-09T03:31:26;22.10;99.90
7117;DHT22;3600;48.568;7.870;2023-07-09T03:33:53;22.10;99.90
7117;DHT22;3600;48.568;7.870;2023-07-09T03:36:20;22.20;99.90
7117;DHT22;3600;48.568;7.870;2023-07-09T03:38:47;22.20;99.90
7117;DHT22;3600;48.568;7.870;2023-07-09T03:41:15;22.20;99.90
7117;DHT22;3600;48.568;7.870;2023-07-09T03:43:42;22.10;99.90
7117;DHT22;3600;48.568;7.870;2023-07-09T03:46:09;22.10;99.90
7117;DHT22;3600;48.568;7.870;2023-07-09T03:48:36;22.10;99.90
7117;DHT22;3600;48.568;7.870;2023-07-09T03:51:03;22.20;99.90
7117;DHT22;3600;48.568;7.870;2023-07-09T03:53:30;22.10;99.90
7117;DHT22;3600;48.568;7.870;2023-07-09T03:55:56;21.90;99.90
7117;DHT22;3600;48.568;7.870;2023-07-09T03:58:25;21.80;99.90
7117;DHT22;3600;48.568;7.870;2023-07-09T04:00:53;21.50;99.90
7117;DHT22;3600;48.568;7.870;2023-07-09T04:03:22;21.50;99.90
7117;DHT22;3600;48.568;7.870;2023-07-09T04:05:50;21.40;99.90
7117;DHT22;3600;48.568;7.870;2023-07-09T04:08:17;21.40;99.90
7117;DHT22;3600;48.568;7.870;2023-07-09T04:10:44;21.60;99.90
7117;DHT22;3600;48.568;7.870;2023-07-09T04:13:11;21.70;99.90
7117;DHT22;3600;48.568;7.870;2023-07-09T04:15:38;21.70;99.90
7117;DHT22;3600;48.568;7.870;2023-07-09T04:18:05;21.70;99.90
7117;DHT22;3600;48.568;7.870;2023-07-09T04:20:32;21.50;99.90
7117;DHT22;3600;48.568;7.870;2023-07-09T04:23:01;21.50;99.90
7117;DHT22;3600;48.568;7.870;2023-07-09T04:25:28;21.60;99.90
7117;DHT22;3600;48.568;7.870;2023-07-09T04:27:55;21.60;99.90
7117;DHT22;3600;48.568;7.870;2023-07-09T04:30:22;21.70;99.90
7117;DHT22;3600;48.568;7.870;2023-07-09T04:32:49;21.70;99.90
7117;DHT22;3600;48.568;7.870;2023-07-09T04:35:16;21.80;99.90
7117;DHT22;3600;48.568;7.870;2023-07-09T04:37:43;21.80;99.90
7117;DHT22;3600;48.568;7.870;2023-07-09T04:40:12;21.90;99.90
7117;DHT22;3600;48.568;7.870;2023-07-09T04:42:39;21.90;99.90
7117;DHT22;3600;48.568;7.870;2023-07-09T04:45:07;22.00;99.90
7117;DHT22;3600;48.568;7.870;2023-07-09T04:47:35;22.00;99.90
7117;DHT22;3600;48.568;7.870;2023-07-09T04:50:04;21.90;99.90
7117;DHT22;3600;48.568;7.870;2023-07-09T04:52:31;21.90;99.90
7117;DHT22;3600;48.568;7.870;2023-07-09T04:54:58;22.00;99.90
7117;DHT22;3600;48.568;7.870;2023-07-09T04:57:26;21.90;99.90
7117;DHT22;3600;48.568;7.870;2023-07-09T04:59:54;22.00;99.90
7117;DHT22;3600;48.568;7.870;2023-07-09T05:02:21;22.10;99.90
7117;DHT22;3600;48.568;7.870;2023-07-09T05:04:48;22.10;99.90
7117;DHT22;3600;48.568;7.870;2023-07-09T05:07:14;22.10;99.90
7117;DHT22;3600;48.568;7.870;2023-07-09T05:09:41;22.10;99.90
7117;DHT22;3600;48.568;7.870;2023-07-09T05:12:09;22.10;99.90
7117;DHT22;3600;48.568;7.870;2023-07-09T05:14:36;22.10;99.90
7117;DHT22;3600;48.568;7.870;2023-07-09T05:17:02;22.10;99.90
7117;DHT22;3600;48.568;7.870;2023-07-09T05:19:31;22.20;99.90
7117;DHT22;3600;48.568;7.870;2023-07-09T05:21:58;22.20;99.90
7117;DHT22;3600;48.568;7.870;2023-07-09T05:24:25;22.20;99.90
7117;DHT22;3600;48.568;7.870;2023-07-09T05:26:54;22.30;99.90
7117;DHT22;3600;48.568;7.870;2023-07-09T05:29:22;22.30;99.90
7117;DHT22;3600;48.568;7.870;2023-07-09T05:31:49;22.40;99.90
7117;DHT22;3600;48.568;7.870;2023-07-09T05:34:16;22.40;99.90
7117;DHT22;3600;48.568;7.870;2023-07-09T05:36:43;22.40;99.90
7117;DHT22;3600;48.568;7.870;2023-07-09T05:39:11;22.40;99.90
7117;DHT22;3600;48.568;7.870;2023-07-09T05:41:38;22.40;99.90
7117;DHT22;3600;48.568;7.870;2023-07-09T05:44:05;22.60;99.90
7117;DHT22;3600;48.568;7.870;2023-07-09T05:46:35;22.50;99.90
7117;DHT22;3600;48.568;7.870;2023-07-09T05:49:04;22.50;99.90
7117;DHT22;3600;48.568;7.870;2023-07-09T05:51:32;22.70;99.90
7117;DHT22;3600;48.568;7.870;2023-07-09T05:53:59;22.70;99.90
7117;DHT22;3600;48.568;7.870;2023-07-09T05:56:25;22.60;99.90
7117;DHT22;3600;48.568;7.870;2023-07-09T05:58:53;22.60;99.90
7117;DHT22;3600;48.568;7.870;2023-07-09T06:01:20;22.80;99.90
7117;DHT22;3600;48.568;7.870;2023-07-09T06:03:47;22.70;99.90
7117;DHT22;3600;48.568;7.870;2023-07-09T06:06:14;22.80;99.90
7117;DHT22;3600;48.568;7.870;2023-07-09T06:08:43;22.80;99.90
7117;DHT22;3600;48.568;7.870;2023-07-09T06:11:10;22.80;99.90
7117;DHT22;3600;48.568;7.870;2023-07-09T06:13:37;22.90;99.90
7117;DHT22;3600;48.568;7.870;2023-07-09T06:16:04;22.90;99.90
7117;DHT22;3600;48.568;7.870;2023-07-09T06:18:32;22.90;99.90
7117;DHT22;3600;48.568;7.870;2023-07-09T06:21:01;22.90;99.90
7117;DHT22;3600;48.568;7.870;2023-07-09T06:23:29;23.00;99.90
7117;DHT22;3600;48.568;7.870;2023-07-09T06:25:56;23.00;99.90
7117;DHT22;3600;48.568;7.870;2023-07-09T06:28:25;23.00;99.90
7117;DHT22;3600;48.568;7.870;2023-07-09T06:30:52;23.30;99.90
7117;DHT22;3600;48.568;7.870;2023-07-09T06:33:19;23.30;99.90
7117;DHT22;3600;48.568;7.870;2023-07-09T06:35:48;23.40;99.90
7117;DHT22;3600;48.568;7.870;2023-07-09T06:38:15;23.40;99.90
7117;DHT22;3600;48.568;7.870;2023-07-09T06:40:42;23.40;99.90
7117;DHT22;3600;48.568;7.870;2023-07-09T06:43:09;23.50;99.90
7117;DHT22;3600;48.568;7.870;2023-07-09T06:45:36;23.50;99.90
7117;DHT22;3600;48.568;7.870;2023-07-09T06:48:03;23.50;99.90
7117;DHT22;3600;48.568;7.870;2023-07-09T06:50:34;23.60;99.90
7117;DHT22;3600;48.568;7.870;2023-07-09T06:53:01;23.70;99.90
7117;DHT22;3600;48.568;7.870;2023-07-09T06:55:28;23.80;99.90
7117;DHT22;3600;48.568;7.870;2023-07-09T06:57:55;23.80;99.90
7117;DHT22;3600;48.568;7.870;2023-07-09T07:00:22;23.80;99.90
7117;DHT22;3600;48.568;7.870;2023-07-09T07:02:49;23.90;99.90
7117;DHT22;3600;48.568;7.870;2023-07-09T07:05:17;24.10;99.90
7117;DHT22;3600;48.568;7.870;2023-07-09T07:07:44;24.10;99.90
7117;DHT22;3600;48.568;7.870;2023-07-09T07:10:11;24.00;99.90
7117;DHT22;3600;48.568;7.870;2023-07-09T07:12:43;24.10;99.90
7117;DHT22;3600;48.568;7.870;2023-07-09T07:15:12;24.10;99.90
7117;DHT22;3600;48.568;7.870;2023-07-09T07:17:40;24.20;99.90
7117;DHT22;3600;48.568;7.870;2023-07-09T07:20:09;24.40;99.90
7117;DHT22;3600;48.568;7.870;2023-07-09T07:22:36;24.50;99.90
7117;DHT22;3600;48.568;7.870;2023-07-09T07:25:05;24.60;99.90
7117;DHT22;3600;48.568;7.870;2023-07-09T07:27:32;25.00;99.90
7117;DHT22;3600;48.568;7.870;2023-07-09T07:30:00;25.20;99.90
7117;DHT22;3600;48.568;7.870;2023-07-09T07:32:27;25.20;99.90
7117;DHT22;3600;48.568;7.870;2023-07-09T07:34:54;25.20;99.90
7117;DHT22;3600;48.568;7.870;2023-07-09T07:37:21;25.30;99.90
7117;DHT22;3600;48.568;7.870;2023-07-09T07:39:48;25.20;99.90
7117;DHT22;3600;48.568;7.870;2023-07-09T07:42:15;25.10;99.90
7117;DHT22;3600;48.568;7.870;2023-07-09T07:44:42;25.10;99.90
7117;DHT22;3600;48.568;7.870;2023-07-09T07:47:09;25.30;99.90
7117;DHT22;3600;48.568;7.870;2023-07-09T07:49:36;25.20;99.90
7117;DHT22;3600;48.568;7.870;2023-07-09T07:52:04;25.20;99.90
7117;DHT22;3600;48.568;7.870;2023-07-09T07:54:31;25.20;99.90
7117;DHT22;3600;48.568;7.870;2023-07-09T07:57:01;25.30;99.90
7117;DHT22;3600;48.568;7.870;2023-07-09T07:59:28;25.30;99.90
7117;DHT22;3600;48.568;7.870;2023-07-09T08:01:55;25.40;99.90
7117;DHT22;3600;48.568;7.870;2023-07-09T08:04:22;25.60;99.90
7117;DHT22;3600;48.568;7.870;2023-07-09T08:06:49;25.70;99.90
7117;DHT22;3600;48.568;7.870;2023-07-09T08:09:15;25.70;99.90
7117;DHT22;3600;48.568;7.870;2023-07-09T08:11:43;25.70;99.90
7117;DHT22;3600;48.568;7.870;2023-07-09T08:14:10;26.00;99.90
7117;DHT22;3600;48.568;7.870;2023-07-09T08:16:38;26.20;99.90
7117;DHT22;3600;48.568;7.870;2023-07-09T08:19:05;26.10;99.90
7117;DHT22;3600;48.568;7.870;2023-07-09T08:21:32;26.20;99.70
7117;DHT22;3600;48.568;7.870;2023-07-09T08:23:59;26.60;99.80
7117;DHT22;3600;48.568;7.870;2023-07-09T08:26:26;26.50;99.30
7117;DHT22;3600;48.568;7.870;2023-07-09T08:28:53;26.40;99.20
7117;DHT22;3600;48.568;7.870;2023-07-09T08:31:20;26.30;99.30
7117;DHT22;3600;48.568;7.870;2023-07-09T08:33:47;26.30;99.10
7117;DHT22;3600;48.568;7.870;2023-07-09T08:36:14;26.40;99.30
7117;DHT22;3600;48.568;7.870;2023-07-09T08:38:42;26.90;99.10
7117;DHT22;3600;48.568;7.870;2023-07-09T08:46:51;27.10;98.40
7117;DHT22;3600;48.568;7.870;2023-07-09T08:52:35;27.40;98.30
7117;DHT22;3600;48.568;7.870;2023-07-09T08:55:09;27.70;97.90
7117;DHT22;3600;48.568;7.870;2023-07-09T08:57:43;28.10;96.90
7117;DHT22;3600;48.568;7.870;2023-07-09T09:00:17;28.20;96.60
7117;DHT22;3600;48.568;7.870;2023-07-09T09:03:04;28.30;96.30
7117;DHT22;3600;48.568;7.870;2023-07-09T09:05:37;28.30;96.30
7117;DHT22;3600;48.568;7.870;2023-07-09T09:10:58;28.60;95.80
7117;DHT22;3600;48.568;7.870;2023-07-09T09:13:30;28.70;96.80
7117;DHT22;3600;48.568;7.870;2023-07-09T09:16:04;28.80;97.20
7117;DHT22;3600;48.568;7.870;2023-07-09T09:18:40;29.10;95.80
7117;DHT22;3600;48.568;7.870;2023-07-09T09:21:35;29.30;96.60
7117;DHT22;3600;48.568;7.870;2023-07-09T09:25:11;29.20;96.30
7117;DHT22;3600;48.568;7.870;2023-07-09T09:27:07;29.50;95.50
7117;DHT22;3600;48.568;7.870;2023-07-09T09:29:34;29.60;95.60
7117;DHT22;3600;48.568;7.870;2023-07-09T09:32:18;29.50;93.90
7117;DHT22;3600;48.568;7.870;2023-07-09T09:34:46;29.60;94.80
7117;DHT22;3600;48.568;7.870;2023-07-09T09:37:29;29.70;94.60
7117;DHT22;3600;48.568;7.870;2023-07-09T09:39:58;29.80;93.80
7117;DHT22;3600;48.568;7.870;2023-07-09T09:42:42;29.90;94.60
7117;DHT22;3600;48.568;7.870;2023-07-09T09:45:17;29.90;93.50
7117;DHT22;3600;48.568;7.870;2023-07-09T09:47:45;30.00;93.80
7117;DHT22;3600;48.568;7.870;2023-07-09T09:50:16;30.20;93.20
7117;DHT22;3600;48.568;7.870;2023-07-09T09:52:44;30.30;92.90
7117;DHT22;3600;48.568;7.870;2023-07-09T09:55:20;30.40;93.50
7117;DHT22;3600;48.568;7.870;2023-07-09T09:57:52;30.70;92.80
7117;DHT22;3600;48.568;7.870;2023-07-09T10:00:23;30.80;92.80
7117;DHT22;3600;48.568;7.870;2023-07-09T10:03:00;30.90;92.50
7117;DHT22;3600;48.568;7.870;2023-07-09T10:06:14;30.90;92.30
7117;DHT22;3600;48.568;7.870;2023-07-09T10:08:45;30.90;91.50
7117;DHT22;3600;48.568;7.870;2023-07-09T10:19:57;31.30;90.30
7117;DHT22;3600;48.568;7.870;2023-07-09T10:22:43;31.60;88.20
7117;DHT22;3600;48.568;7.870;2023-07-09T10:27:56;31.50;87.00
7117;DHT22;3600;48.568;7.870;2023-07-09T10:30:41;31.80;83.20
7117;DHT22;3600;48.568;7.870;2023-07-09T10:33:11;31.90;84.50
7117;DHT22;3600;48.568;7.870;2023-07-09T10:35:41;32.00;86.60
7117;DHT22;3600;48.568;7.870;2023-07-09T10:38:20;32.00;84.60
7117;DHT22;3600;48.568;7.870;2023-07-09T10:40:53;32.00;82.20
7117;DHT22;3600;48.568;7.870;2023-07-09T10:43:37;32.50;82.70
7117;DHT22;3600;48.568;7.870;2023-07-09T10:46:14;32.30;82.50
7117;DHT22;3600;48.568;7.870;2023-07-09T10:48:46;32.60;82.20
7117;DHT22;3600;48.568;7.870;2023-07-09T10:51:27;32.90;81.60
7117;DHT22;3600;48.568;7.870;2023-07-09T10:56:50;32.70;82.40
7117;DHT22;3600;48.568;7.870;2023-07-09T10:59:40;32.80;82.90
7117;DHT22;3600;48.568;7.870;2023-07-09T11:02:46;33.10;79.90
7117;DHT22;3600;48.568;7.870;2023-07-09T11:05:14;33.40;78.30
7117;DHT22;3600;48.568;7.870;2023-07-09T11:08:02;33.20;79.10
7117;DHT22;3600;48.568;7.870;2023-07-09T11:10:40;33.30;79.70
7117;DHT22;3600;48.568;7.870;2023-07-09T11:16:15;33.60;79.00
7117;DHT22;3600;48.568;7.870;2023-07-09T11:18:55;33.70;77.10
7117;DHT22;3600;48.568;7.870;2023-07-09T11:21:23;33.70;78.60
7117;DHT22;3600;48.568;7.870;2023-07-09T11:26:30;33.70;75.40
7117;DHT22;3600;48.568;7.870;2023-07-09T11:29:17;33.50;76.70
7117;DHT22;3600;48.568;7.870;2023-07-09T11:31:45;33.30;75.60
7117;DHT22;3600;48.568;7.870;2023-07-09T11:39:31;33.50;73.80
7117;DHT22;3600;48.568;7.870;2023-07-09T11:41:59;33.80;76.40
7117;DHT22;3600;48.568;7.870;2023-07-09T11:44:28;33.90;75.50
7117;DHT22;3600;48.568;7.870;2023-07-09T11:47:22;34.20;74.80
7117;DHT22;3600;48.568;7.870;2023-07-09T11:50:02;34.60;71.70
7117;DHT22;3600;48.568;7.870;2023-07-09T11:52:34;34.60;69.40
7117;DHT22;3600;48.568;7.870;2023-07-09T11:55:28;34.70;70.60
7117;DHT22;3600;48.568;7.870;2023-07-09T11:58:05;34.90;69.40
7117;DHT22;3600;48.568;7.870;2023-07-09T12:00:41;34.30;71.00
7117;DHT22;3600;48.568;7.870;2023-07-09T12:03:29;34.80;71.60
7117;DHT22;3600;48.568;7.870;2023-07-09T12:06:01;35.20;70.70
7117;DHT22;3600;48.568;7.870;2023-07-09T12:08:38;35.40;67.80
7117;DHT22;3600;48.568;7.870;2023-07-09T12:11:06;35.40;66.70
7117;DHT22;3600;48.568;7.870;2023-07-09T12:13:37;35.40;67.30
7117;DHT22;3600;48.568;7.870;2023-07-09T12:16:17;35.50;67.70
7117;DHT22;3600;48.568;7.870;2023-07-09T12:18:45;35.70;66.30
7117;DHT22;3600;48.568;7.870;2023-07-09T12:21:13;35.80;66.60
7117;DHT22;3600;48.568;7.870;2023-07-09T12:23:41;35.80;66.90
7117;DHT22;3600;48.568;7.870;2023-07-09T12:26:16;35.10;63.70
7117;DHT22;3600;48.568;7.870;2023-07-09T12:28:48;35.20;68.80
7117;DHT22;3600;48.568;7.870;2023-07-09T12:31:16;35.70;65.40
7117;DHT22;3600;48.568;7.870;2023-07-09T12:33:48;35.90;66.70
7117;DHT22;3600;48.568;7.870;2023-07-09T12:36:17;36.20;66.50
7117;DHT22;3600;48.568;7.870;2023-07-09T12:38:50;36.10;63.40
7117;DHT22;3600;48.568;7.870;2023-07-09T12:41:36;35.80;63.00
7117;DHT22;3600;48.568;7.870;2023-07-09T12:44:04;34.70;65.60
7117;DHT22;3600;48.568;7.870;2023-07-09T12:46:32;34.40;65.30
7117;DHT22;3600;48.568;7.870;2023-07-09T12:48:59;34.80;67.50
7117;DHT22;3600;48.568;7.870;2023-07-09T12:51:28;35.40;66.70
7117;DHT22;3600;48.568;7.870;2023-07-09T12:54:28;35.70;66.20
7117;DHT22;3600;48.568;7.870;2023-07-09T12:56:59;36.30;63.40
7117;DHT22;3600;48.568;7.870;2023-07-09T12:59:46;36.60;62.70
7117;DHT22;3600;48.568;7.870;2023-07-09T13:04:48;36.20;64.10
7117;DHT22;3600;48.568;7.870;2023-07-09T13:07:37;36.50;62.70
7117;DHT22;3600;48.568;7.870;2023-07-09T13:10:17;36.80;62.50
7117;DHT22;3600;48.568;7.870;2023-07-09T13:12:49;37.10;62.10
7117;DHT22;3600;48.568;7.870;2023-07-09T13:15:26;36.80;63.50
7117;DHT22;3600;48.568;7.870;2023-07-09T13:18:01;37.00;63.00
7117;DHT22;3600;48.568;7.870;2023-07-09T13:20:31;36.30;64.70
7117;DHT22;3600;48.568;7.870;2023-07-09T13:22:59;36.00;64.30
7117;DHT22;3600;48.568;7.870;2023-07-09T13:25:26;35.60;64.10
7117;DHT22;3600;48.568;7.870;2023-07-09T13:30:44;35.70;65.30
7117;DHT22;3600;48.568;7.870;2023-07-09T13:33:11;36.10;63.60
7117;DHT22;3600;48.568;7.870;2023-07-09T13:35:38;35.70;64.50
7117;DHT22;3600;48.568;7.870;2023-07-09T13:38:13;36.20;63.80
7117;DHT22;3600;48.568;7.870;2023-07-09T13:40:41;36.90;61.70
7117;DHT22;3600;48.568;7.870;2023-07-09T13:43:23;36.70;61.50
7117;DHT22;3600;48.568;7.870;2023-07-09T13:45:50;36.70;61.00
7117;DHT22;3600;48.568;7.870;2023-07-09T13:48:18;36.50;60.90
7117;DHT22;3600;48.568;7.870;2023-07-09T13:50:48;36.60;62.00
7117;DHT22;3600;48.568;7.870;2023-07-09T13:53:19;36.80;62.80
7117;DHT22;3600;48.568;7.870;2023-07-09T13:55:47;36.80;61.70
7117;DHT22;3600;48.568;7.870;2023-07-09T13:58:16;36.80;61.70
7117;DHT22;3600;48.568;7.870;2023-07-09T14:00:45;36.70;62.10
7117;DHT22;3600;48.568;7.870;2023-07-09T14:03:24;36.70;61.60
7117;DHT22;3600;48.568;7.870;2023-07-09T14:05:51;36.70;62.00
7117;DHT22;3600;48.568;7.870;2023-07-09T14:08:19;36.70;61.90
7117;DHT22;3600;48.568;7.870;2023-07-09T14:10:48;36.50;61.70
7117;DHT22;3600;48.568;7.870;2023-07-09T14:13:18;36.20;62.60
7117;DHT22;3600;48.568;7.870;2023-07-09T14:15:45;36.20;63.00
7117;DHT22;3600;48.568;7.870;2023-07-09T14:18:15;36.00;63.40
7117;DHT22;3600;48.568;7.870;2023-07-09T14:20:42;35.80;63.50
7117;DHT22;3600;48.568;7.870;2023-07-09T14:23:14;35.70;64.10
7117;DHT22;3600;48.568;7.870;2023-07-09T14:25:42;35.50;63.90
7117;DHT22;3600;48.568;7.870;2023-07-09T14:28:15;35.40;64.70
7117;DHT22;3600;48.568;7.870;2023-07-09T14:30:42;35.30;65.00
7117;DHT22;3600;48.568;7.870;2023-07-09T14:33:14;35.00;66.00
7117;DHT22;3600;48.568;7.870;2023-07-09T14:35:43;34.90;66.50
7117;DHT22;3600;48.568;7.870;2023-07-09T14:38:21;34.90;66.70
7117;DHT22;3600;48.568;7.870;2023-07-09T14:40:54;34.80;67.30
7117;DHT22;3600;48.568;7.870;2023-07-09T14:43:22;34.70;67.60
7117;DHT22;3600;48.568;7.870;2023-07-09T14:45:49;34.60;68.10
7117;DHT22;3600;48.568;7.870;2023-07-09T14:48:19;34.40;68.50
7117;DHT22;3600;48.568;7.870;2023-07-09T14:50:47;34.30;69.30
7117;DHT22;3600;48.568;7.870;2023-07-09T14:53:23;34.20;69.60
7117;DHT22;3600;48.568;7.870;2023-07-09T14:55:52;34.10;70.20
7117;DHT22;3600;48.568;7.870;2023-07-09T14:58:21;34.00;70.80
7117;DHT22;3600;48.568;7.870;2023-07-09T15:00:48;33.80;71.60
7117;DHT22;3600;48.568;7.870;2023-07-09T15:03:22;33.70;71.30
7117;DHT22;3600;48.568;7.870;2023-07-09T15:05:49;33.60;72.10
7117;DHT22;3600;48.568;7.870;2023-07-09T15:08:22;33.30;72.00
7117;DHT22;3600;48.568;7.870;2023-07-09T15:10:50;33.30;72.30
7117;DHT22;3600;48.568;7.870;2023-07-09T15:13:25;33.20;71.90
7117;DHT22;3600;48.568;7.870;2023-07-09T15:15:53;33.10;72.50
7117;DHT22;3600;48.568;7.870;2023-07-09T15:18:20;33.00;71.70
7117;DHT22;3600;48.568;7.870;2023-07-09T15:20:53;33.00;71.50
7117;DHT22;3600;48.568;7.870;2023-07-09T15:23:21;32.90;72.10
7117;DHT22;3600;48.568;7.870;2023-07-09T15:25:49;32.70;71.30
7117;DHT22;3600;48.568;7.870;2023-07-09T15:28:17;32.60;71.10
7117;DHT22;3600;48.568;7.870;2023-07-09T15:30:44;32.70;69.80
7117;DHT22;3600;48.568;7.870;2023-07-09T15:33:19;32.60;70.90
7117;DHT22;3600;48.568;7.870;2023-07-09T15:35:47;32.60;71.40
7117;DHT22;3600;48.568;7.870;2023-07-09T15:40:46;32.60;70.50
7117;DHT22;3600;48.568;7.870;2023-07-09T15:43:15;32.70;70.20
7117;DHT22;3600;48.568;7.870;2023-07-09T15:45:45;32.60;70.80
7117;DHT22;3600;48.568;7.870;2023-07-09T15:48:31;32.90;66.50
7117;DHT22;3600;48.568;7.870;2023-07-09T15:50:59;33.00;66.30
7117;DHT22;3600;48.568;7.870;2023-07-09T15:53:26;33.00;64.30
7117;DHT22;3600;48.568;7.870;2023-07-09T15:55:57;33.10;63.70
7117;DHT22;3600;48.568;7.870;2023-07-09T15:58:27;33.10;63.90
7117;DHT22;3600;48.568;7.870;2023-07-09T16:00:54;33.00;63.10
7117;DHT22;3600;48.568;7.870;2023-07-09T16:03:21;33.20;64.50
7117;DHT22;3600;48.568;7.870;2023-07-09T16:05:49;32.90;65.60
7117;DHT22;3600;48.568;7.870;2023-07-09T16:08:17;32.70;66.40
7117;DHT22;3600;48.568;7.870;2023-07-09T16:10:44;32.70;67.30
7117;DHT22;3600;48.568;7.870;2023-07-09T16:13:24;32.70;66.30
7117;DHT22;3600;48.568;7.870;2023-07-09T16:15:52;32.70;66.30
7117;DHT22;3600;48.568;7.870;2023-07-09T16:18:19;32.80;66.60
7117;DHT22;3600;48.568;7.870;2023-07-09T16:20:47;32.60;68.10
7117;DHT22;3600;48.568;7.870;2023-07-09T16:23:19;32.70;66.90
7117;DHT22;3600;48.568;7.870;2023-07-09T16:25:48;32.60;67.00
7117;DHT22;3600;48.568;7.870;2023-07-09T16:28:18;32.60;67.80
7117;DHT22;3600;48.568;7.870;2023-07-09T16:30:47;32.70;65.80
7117;DHT22;3600;48.568;7.870;2023-07-09T16:33:15;32.70;67.20
7117;DHT22;3600;48.568;7.870;2023-07-09T16:35:42;32.70;67.20
7117;DHT22;3600;48.568;7.870;2023-07-09T16:38:12;32.70;67.60
7117;DHT22;3600;48.568;7.870;2023-07-09T16:40:39;32.70;66.00
7117;DHT22;3600;48.568;7.870;2023-07-09T16:43:18;32.90;67.30
7117;DHT22;3600;48.568;7.870;2023-07-09T16:45:45;32.80;66.50
7117;DHT22;3600;48.568;7.870;2023-07-09T16:48:18;32.80;66.90
7117;DHT22;3600;48.568;7.870;2023-07-09T16:50:45;32.90;66.90
7117;DHT22;3600;48.568;7.870;2023-07-09T16:53:17;32.90;65.20
7117;DHT22;3600;48.568;7.870;2023-07-09T16:55:45;32.80;64.10
7117;DHT22;3600;48.568;7.870;2023-07-09T17:00:44;32.80;65.40
7117;DHT22;3600;48.568;7.870;2023-07-09T17:03:12;32.80;64.40
7117;DHT22;3600;48.568;7.870;2023-07-09T17:05:39;32.80;64.60
7117;DHT22;3600;48.568;7.870;2023-07-09T17:08:08;32.90;63.40
7117;DHT22;3600;48.568;7.870;2023-07-09T17:10:36;32.90;63.80
7117;DHT22;3600;48.568;7.870;2023-07-09T17:13:03;32.90;63.00
7117;DHT22;3600;48.568;7.870;2023-07-09T17:15:32;32.80;64.30
7117;DHT22;3600;48.568;7.870;2023-07-09T17:18:00;32.80;63.30
7117;DHT22;3600;48.568;7.870;2023-07-09T17:20:29;32.80;64.00